sensor_id;sensor_type;location;lat;lon;timestamp;pressure;altitude;pressure_sealevel;temperature;humidity
40992;BME280;29633;49.168;9.848;2022-08-19T00:01:50;96358.31;;;26.59;54.88
40992;BME280;29633;49.168;9.848;2022-08-19T00:04:19;96357.38;;;26.53;54.98
40992;BME280;29633;49.168;9.848;2022-08-19T00:06:46;96361.31;;;26.51;54.91
40992;BME280;29633;49.168;9.848;2022-08-19T00:09:15;96354.94;;;26.52;55.12
40992;BME280;29633;49.168;9.848;2022-08-19T00:11:43;96351.25;;;26.53;54.94
40992;BME280;29633;49.168;9.848;2022-08-19T00:14:12;96345.94;;;26.53;55.02
40992;BME280;29633;49.168;9.848;2022-08-19T00:16:40;96354.94;;;26.52;54.98
40992;BME280;29633;49.168;9.848;2022-08-19T00:19:08;96347.44;;;26.49;55.36
40992;BME280;29633;49.168;9.848;2022-08-19T00:21:34;96359.13;;;26.48;55.29
40992;BME280;29633;49.168;9.848;2022-08-19T00:24:04;96368.63;;;26.43;55.07
40992;BME280;29633;49.168;9.848;2022-08-19T00:26:30;96376.47;;;26.38;55.37
40992;BME280;29633;49.168;9.848;2022-08-19T00:28:56;96379.03;;;26.33;55.56
40992;BME280;29633;49.168;9.848;2022-08-19T00:31:22;96384.22;;;26.28;55.56
40992;BME280;29633;49.168;9.848;2022-08-19T00:33:48;96386.28;;;26.26;55.57
40992;BME280;29633;49.168;9.848;2022-08-19T00:36:16;96377.75;;;26.24;55.64
40992;BME280;29633;49.168;9.848;2022-08-19T00:38:42;96381.44;;;26.23;55.70
40992;BME280;29633;49.168;9.848;2022-08-19T00:41:13;96366.53;;;26.22;55.99
40992;BME280;29633;49.168;9.848;2022-08-19T00:43:40;96365.13;;;26.20;56.01
40992;BME280;29633;49.168;9.848;2022-08-19T00:46:07;96367.41;;;26.16;55.88
40992;BME280;29633;49.168;9.848;2022-08-19T00:48:34;96367.88;;;26.13;56.15
40992;BME280;29633;49.168;9.848;2022-08-19T00:51:00;96352.19;;;26.12;56.13
40992;BME280;29633;49.168;9.848;2022-08-19T00:53:28;96349.75;;;26.10;56.26
40992;BME280;29633;49.168;9.848;2022-08-19T00:55:59;96340.16;;;26.09;56.01
40992;BME280;29633;49.168;9.848;2022-08-19T00:58:30;96339.13;;;26.10;55.99
40992;BME280;29633;49.168;9.848;2022-08-19T01:00:56;96341.78;;;26.10;55.96
40992;BME280;29633;49.168;9.848;2022-08-19T01:03:22;96344.09;;;26.07;56.18
40992;BME280;29633;49.168;9.848;2022-08-19T01:05:50;96353.09;;;26.06;56.28
40992;BME280;29633;49.168;9.848;2022-08-19T01:08:18;96366.63;;;26.04;56.20
40992;BME280;29633;49.168;9.848;2022-08-19T01:10:58;96376.09;;;26.00;56.26
40992;BME280;29633;49.168;9.848;2022-08-19T01:13:29;96375.72;;;25.97;56.35
40992;BME280;29633;49.168;9.848;2022-08-19T01:16:03;96381.16;;;25.90;56.21
40992;BME280;29633;49.168;9.848;2022-08-19T01:18:31;96379.38;;;25.84;56.62
40992;BME280;29633;49.168;9.848;2022-08-19T01:23:44;96383.53;;;25.80;56.68
40992;BME280;29633;49.168;9.848;2022-08-19T01:26:20;96366.56;;;25.81;56.40
40992;BME280;29633;49.168;9.848;2022-08-19T01:28:51;96361.25;;;25.81;56.41
40992;BME280;29633;49.168;9.848;2022-08-19T01:31:24;96353.88;;;25.83;56.57
40992;BME280;29633;49.168;9.848;2022-08-19T01:33:53;96358.41;;;25.82;56.54
40992;BME280;29633;49.168;9.848;2022-08-19T01:36:31;96353.50;;;25.79;56.58
40992;BME280;29633;49.168;9.848;2022-08-19T01:39:00;96355.81;;;25.76;56.67
40992;BME280;29633;49.168;9.848;2022-08-19T01:41:26;96360.56;;;25.74;56.76
40992;BME280;29633;49.168;9.848;2022-08-19T01:43:52;96363.22;;;25.74;56.62
40992;BME280;29633;49.168;9.848;2022-08-19T01:46:19;96357.75;;;25.69;56.55
40992;BME280;29633;49.168;9.848;2022-08-19T01:48:45;96355.81;;;25.64;56.76
40992;BME280;29633;49.168;9.848;2022-08-19T01:51:13;96362.38;;;25.62;56.85
40992;BME280;29633;49.168;9.848;2022-08-19T01:53:40;96364.00;;;25.63;56.63
40992;BME280;29633;49.168;9.848;2022-08-19T01:56:06;96361.13;;;25.64;56.91
40992;BME280;29633;49.168;9.848;2022-08-19T01:58:39;96365.03;;;25.62;56.63
40992;BME280;29633;49.168;9.848;2022-08-19T02:01:07;96367.09;;;25.60;56.73
40992;BME280;29633;49.168;9.848;2022-08-19T02:03:33;96359.16;;;25.60;56.77
40992;BME280;29633;49.168;9.848;2022-08-19T02:06:02;96349.56;;;25.59;56.93
40992;BME280;29633;49.168;9.848;2022-08-19T02:08:29;96358.34;;;25.59;56.81
40992;BME280;29633;49.168;9.848;2022-08-19T02:10:56;96368.13;;;25.59;56.81
40992;BME280;29633;49.168;9.848;2022-08-19T02:13:23;96359.59;;;25.57;56.92
40992;BME280;29633;49.168;9.848;2022-08-19T02:15:49;96365.94;;;25.56;56.87
40992;BME280;29633;49.168;9.848;2022-08-19T02:18:15;96372.28;;;25.55;56.82
40992;BME280;29633;49.168;9.848;2022-08-19T02:20:42;96374.34;;;25.53;57.01
40992;BME280;29633;49.168;9.848;2022-08-19T02:23:09;96375.53;;;25.57;56.79
40992;BME280;29633;49.168;9.848;2022-08-19T02:25:36;96370.69;;;25.54;56.71
40992;BME280;29633;49.168;9.848;2022-08-19T02:28:02;96370.28;;;25.50;56.94
40992;BME280;29633;49.168;9.848;2022-08-19T02:30:29;96374.19;;;25.47;57.03
40992;BME280;29633;49.168;9.848;2022-08-19T02:32:54;96372.81;;;25.45;56.97
40992;BME280;29633;49.168;9.848;2022-08-19T02:35:20;96381.22;;;25.42;57.10
40992;BME280;29633;49.168;9.848;2022-08-19T02:37:46;96393.06;;;25.39;57.09
40992;BME280;29633;49.168;9.848;2022-08-19T02:40:32;96398.84;;;25.36;57.19
40992;BME280;29633;49.168;9.848;2022-08-19T02:43:01;96397.25;;;25.35;57.09
40992;BME280;29633;49.168;9.848;2022-08-19T02:45:32;96402.97;;;25.32;57.16
40992;BME280;29633;49.168;9.848;2022-08-19T02:47:58;96401.59;;;25.30;57.16
40992;BME280;29633;49.168;9.848;2022-08-19T02:50:24;96402.03;;;25.27;57.17
40992;BME280;29633;49.168;9.848;2022-08-19T02:52:49;96385.31;;;25.26;57.16
40992;BME280;29633;49.168;9.848;2022-08-19T02:55:15;96383.66;;;25.25;57.24
40992;BME280;29633;49.168;9.848;2022-08-19T02:57:41;96385.31;;;25.26;57.42
40992;BME280;29633;49.168;9.848;2022-08-19T03:00:08;96392.09;;;25.22;57.49
40992;BME280;29633;49.168;9.848;2022-08-19T03:02:38;96390.69;;;25.20;57.21
40992;BME280;29633;49.168;9.848;2022-08-19T03:05:05;96397.84;;;25.19;57.59
40992;BME280;29633;49.168;9.848;2022-08-19T03:07:32;96391.97;;;25.17;57.53
40992;BME280;29633;49.168;9.848;2022-08-19T03:09:58;96398.88;;;25.18;57.38
40992;BME280;29633;49.168;9.848;2022-08-19T03:12:24;96389.88;;;25.19;57.34
40992;BME280;29633;49.168;9.848;2022-08-19T03:14:49;96391.50;;;25.20;57.30
40992;BME280;29633;49.168;9.848;2022-08-19T03:17:16;96383.31;;;25.22;57.42
40992;BME280;29633;49.168;9.848;2022-08-19T03:19:42;96389.88;;;25.19;57.73
40992;BME280;29633;49.168;9.848;2022-08-19T03:22:08;96389.06;;;25.19;57.43
40992;BME280;29633;49.168;9.848;2022-08-19T03:24:34;96390.91;;;25.18;57.66
40992;BME280;29633;49.168;9.848;2022-08-19T03:27:00;96385.84;;;25.17;57.66
40992;BME280;29633;49.168;9.848;2022-08-19T03:29:28;96383.41;;;25.15;57.87
40992;BME280;29633;49.168;9.848;2022-08-19T03:31:54;96380.19;;;25.13;57.82
40992;BME280;29633;49.168;9.848;2022-08-19T03:34:29;96384.06;;;25.11;57.87
40992;BME280;29633;49.168;9.848;2022-08-19T03:36:59;96381.66;;;25.09;57.77
40992;BME280;29633;49.168;9.848;2022-08-19T03:39:26;96377.97;;;25.10;57.88
40992;BME280;29633;49.168;9.848;2022-08-19T03:41:53;96374.06;;;25.13;57.84
40992;BME280;29633;49.168;9.848;2022-08-19T03:44:23;96364.25;;;25.13;57.78
40992;BME280;29633;49.168;9.848;2022-08-19T03:46:55;96361.63;;;25.13;57.90
40992;BME280;29633;49.168;9.848;2022-08-19T03:49:26;96357.31;;;25.12;57.99
40992;BME280;29633;49.168;9.848;2022-08-19T03:51:54;96356.97;;;25.09;57.93
40992;BME280;29633;49.168;9.848;2022-08-19T03:54:22;96366.75;;;25.08;57.68
40992;BME280;29633;49.168;9.848;2022-08-19T03:56:51;96368.84;;;25.06;57.91
40992;BME280;29633;49.168;9.848;2022-08-19T03:59:30;96367.44;;;25.04;57.72
40992;BME280;29633;49.168;9.848;2022-08-19T04:02:00;96372.53;;;25.05;57.93
40992;BME280;29633;49.168;9.848;2022-08-19T04:04:27;96379.91;;;25.03;58.05
40992;BME280;29633;49.168;9.848;2022-08-19T04:06:53;96387.25;;;25.01;58.21
40992;BME280;29633;49.168;9.848;2022-08-19T04:09:19;96388.53;;;24.98;58.03
40992;BME280;29633;49.168;9.848;2022-08-19T04:11:50;96398.53;;;24.96;58.20
40992;BME280;29633;49.168;9.848;2022-08-19T04:14:23;96403.81;;;24.96;58.36
40992;BME280;29633;49.168;9.848;2022-08-19T04:16:50;96405.31;;;24.92;58.18
40992;BME280;29633;49.168;9.848;2022-08-19T04:19:18;96402.53;;;24.87;58.25
40992;BME280;29633;49.168;9.848;2022-08-19T04:21:47;96408.03;;;24.86;59.04
40992;BME280;29633;49.168;9.848;2022-08-19T04:24:14;96402.56;;;24.81;58.57
40992;BME280;29633;49.168;9.848;2022-08-19T04:26:40;96395.63;;;24.80;58.72
40992;BME280;29633;49.168;9.848;2022-08-19T04:29:13;96385.47;;;24.77;58.82
40992;BME280;29633;49.168;9.848;2022-08-19T04:31:40;96389.59;;;24.73;58.53
40992;BME280;29633;49.168;9.848;2022-08-19T04:34:09;96388.78;;;24.72;58.75
40992;BME280;29633;49.168;9.848;2022-08-19T04:36:38;96386.34;;;24.71;59.08
40992;BME280;29633;49.168;9.848;2022-08-19T04:39:15;96382.09;;;24.70;58.83
40992;BME280;29633;49.168;9.848;2022-08-19T04:41:41;96375.59;;;24.66;59.22
40992;BME280;29633;49.168;9.848;2022-08-19T04:44:26;96379.53;;;24.63;59.11
40992;BME280;29633;49.168;9.848;2022-08-19T04:46:52;96379.53;;;24.63;58.97
40992;BME280;29633;49.168;9.848;2022-08-19T04:49:22;96379.06;;;24.66;58.89
40992;BME280;29633;49.168;9.848;2022-08-19T04:51:49;96385.78;;;24.69;59.05
40992;BME280;29633;49.168;9.848;2022-08-19T04:54:18;96384.75;;;24.70;59.10
40992;BME280;29633;49.168;9.848;2022-08-19T04:56:49;96387.97;;;24.72;59.09
40992;BME280;29633;49.168;9.848;2022-08-19T04:59:16;96387.16;;;24.71;58.97
40992;BME280;29633;49.168;9.848;2022-08-19T05:01:44;96387.97;;;24.72;59.17
40992;BME280;29633;49.168;9.848;2022-08-19T05:04:14;96403.88;;;24.72;58.92
40992;BME280;29633;49.168;9.848;2022-08-19T05:06:39;96404.84;;;24.77;59.17
40992;BME280;29633;49.168;9.848;2022-08-19T05:09:05;96408.31;;;24.78;59.11
40992;BME280;29633;49.168;9.848;2022-08-19T05:11:35;96413.63;;;24.78;59.34
40992;BME280;29633;49.168;9.848;2022-08-19T05:14:06;96418.94;;;24.78;59.13
40992;BME280;29633;49.168;9.848;2022-08-19T05:16:32;96422.59;;;24.77;59.17
40992;BME280;29633;49.168;9.848;2022-08-19T05:18:58;96425.47;;;24.75;59.18
40992;BME280;29633;49.168;9.848;2022-08-19T05:21:43;96436.44;;;24.79;58.88
40992;BME280;29633;49.168;9.848;2022-08-19T05:24:28;96438.06;;;24.80;59.09
40992;BME280;29633;49.168;9.848;2022-08-19T05:26:55;96448.22;;;24.83;59.05
40992;BME280;29633;49.168;9.848;2022-08-19T05:29:26;96446.59;;;24.82;59.07
40992;BME280;29633;49.168;9.848;2022-08-19T05:31:54;96451.50;;;24.85;58.99
40992;BME280;29633;49.168;9.848;2022-08-19T05:34:22;96452.09;;;24.87;59.17
40992;BME280;29633;49.168;9.848;2022-08-19T05:36:56;96460.03;;;24.87;59.02
40992;BME280;29633;49.168;9.848;2022-08-19T05:39:28;96457.38;;;24.87;59.28
40992;BME280;29633;49.168;9.848;2022-08-19T05:41:58;96463.28;;;24.89;59.21
40992;BME280;29633;49.168;9.848;2022-08-19T05:44:27;96462.03;;;24.91;59.15
40992;BME280;29633;49.168;9.848;2022-08-19T05:46:53;96468.16;;;24.92;59.30
40992;BME280;29633;49.168;9.848;2022-08-19T05:49:22;96471.84;;;24.91;59.32
40992;BME280;29633;49.168;9.848;2022-08-19T05:51:49;96471.41;;;24.94;59.21
40992;BME280;29633;49.168;9.848;2022-08-19T05:54:15;96471.41;;;24.94;59.12
40992;BME280;29633;49.168;9.848;2022-08-19T05:56:42;96473.22;;;24.93;59.30
40992;BME280;29633;49.168;9.848;2022-08-19T05:59:09;96473.03;;;24.95;59.41
40992;BME280;29633;49.168;9.848;2022-08-19T06:01:43;96478.09;;;24.96;59.26
40992;BME280;29633;49.168;9.848;2022-08-19T06:04:09;96472.78;;;24.96;59.40
40992;BME280;29633;49.168;9.848;2022-08-19T06:06:36;96480.75;;;24.96;59.28
40992;BME280;29633;49.168;9.848;2022-08-19T06:09:06;96477.28;;;24.96;59.56
40992;BME280;29633;49.168;9.848;2022-08-19T06:11:44;96479.34;;;24.94;59.70
40992;BME280;29633;49.168;9.848;2022-08-19T06:14:15;96478.78;;;24.92;59.39
40992;BME280;29633;49.168;9.848;2022-08-19T06:16:42;96488.13;;;24.94;59.45
40992;BME280;29633;49.168;9.848;2022-08-19T06:19:12;96483.63;;;24.95;59.39
40992;BME280;29633;49.168;9.848;2022-08-19T06:21:41;96484.81;;;24.99;59.18
40992;BME280;29633;49.168;9.848;2022-08-19T06:24:12;96490.69;;;25.01;59.50
40992;BME280;29633;49.168;9.848;2022-08-19T06:26:43;96490.13;;;24.99;59.51
40992;BME280;29633;49.168;9.848;2022-08-19T06:29:13;96483.38;;;24.96;59.29
40992;BME280;29633;49.168;9.848;2022-08-19T06:31:43;96469.31;;;24.96;59.42
40992;BME280;29633;49.168;9.848;2022-08-19T06:34:10;96466.09;;;24.94;59.52
40992;BME280;29633;49.168;9.848;2022-08-19T06:36:40;96468.75;;;24.94;59.40
40992;BME280;29633;49.168;9.848;2022-08-19T06:39:18;96459.16;;;24.93;59.56
40992;BME280;29633;49.168;9.848;2022-08-19T06:41:48;96457.56;;;24.92;59.81
40992;BME280;29633;49.168;9.848;2022-08-19T06:44:15;96456.13;;;24.89;59.69
40992;BME280;29633;49.168;9.848;2022-08-19T06:46:42;96456.50;;;24.93;59.69
40992;BME280;29633;49.168;9.848;2022-08-19T06:49:08;96454.47;;;24.95;59.95
40992;BME280;29633;49.168;9.848;2022-08-19T06:51:37;96452.38;;;24.97;59.55
40992;BME280;29633;49.168;9.848;2022-08-19T06:54:04;96457.47;;;24.98;59.83
40992;BME280;29633;49.168;9.848;2022-08-19T06:56:32;96455.63;;;24.99;59.66
40992;BME280;29633;49.168;9.848;2022-08-19T06:59:10;96470.13;;;24.96;59.92
40992;BME280;29633;49.168;9.848;2022-08-19T07:01:44;96477.69;;;25.00;59.80
40992;BME280;29633;49.168;9.848;2022-08-19T07:04:16;96485.75;;;25.05;59.80
40992;BME280;29633;49.168;9.848;2022-08-19T07:06:43;96487.75;;;25.09;59.68
40992;BME280;29633;49.168;9.848;2022-08-19T07:09:15;96490.41;;;25.09;60.06
40992;BME280;29633;49.168;9.848;2022-08-19T07:11:51;96495.19;;;25.01;59.42
40992;BME280;29633;49.168;9.848;2022-08-19T07:14:22;96494.31;;;25.07;59.39
40992;BME280;29633;49.168;9.848;2022-08-19T07:16:50;96499.31;;;25.15;59.39
40992;BME280;29633;49.168;9.848;2022-08-19T07:19:18;96503.81;;;25.14;59.63
40992;BME280;29633;49.168;9.848;2022-08-19T07:21:47;96498.28;;;25.16;59.47
40992;BME280;29633;49.168;9.848;2022-08-19T07:24:13;96503.59;;;25.16;59.56
40992;BME280;29633;49.168;9.848;2022-08-19T07:26:42;96499.47;;;25.20;59.65
40992;BME280;29633;49.168;9.848;2022-08-19T07:29:10;96499.28;;;25.21;59.41
40992;BME280;29633;49.168;9.848;2022-08-19T07:31:36;96502.50;;;25.23;59.58
40992;BME280;29633;49.168;9.848;2022-08-19T07:34:05;96499.28;;;25.21;59.81
40992;BME280;29633;49.168;9.848;2022-08-19T07:36:34;96505.16;;;25.23;59.43
40992;BME280;29633;49.168;9.848;2022-08-19T07:39:29;96497.19;;;25.23;59.78
40992;BME280;29633;49.168;9.848;2022-08-19T07:41:58;96501.84;;;25.28;59.48
40992;BME280;29633;49.168;9.848;2022-08-19T07:44:25;96503.22;;;25.30;59.42
40992;BME280;29633;49.168;9.848;2022-08-19T07:46:54;96500.78;;;25.29;59.50
40992;BME280;29633;49.168;9.848;2022-08-19T07:49:22;96503.88;;;25.26;59.47
40992;BME280;29633;49.168;9.848;2022-08-19T07:54:19;96518.88;;;25.20;59.79
40992;BME280;29633;49.168;9.848;2022-08-19T07:56:45;96515.59;;;25.18;59.68
40992;BME280;29633;49.168;9.848;2022-08-19T07:59:10;96519.69;;;25.21;59.81
40992;BME280;29633;49.168;9.848;2022-08-19T08:01:38;96529.84;;;25.24;59.54
40992;BME280;29633;49.168;9.848;2022-08-19T08:04:06;96519.59;;;25.27;59.52
40992;BME280;29633;49.168;9.848;2022-08-19T08:06:52;96528.59;;;25.26;59.39
40992;BME280;29633;49.168;9.848;2022-08-19T08:09:40;96533.31;;;25.24;59.58
40992;BME280;29633;49.168;9.848;2022-08-19T08:12:15;96530.66;;;25.24;59.59
40992;BME280;29633;49.168;9.848;2022-08-19T08:14:51;96525.81;;;25.21;59.74
40992;BME280;29633;49.168;9.848;2022-08-19T08:17:20;96527.41;;;25.22;59.84
40992;BME280;29633;49.168;9.848;2022-08-19T08:19:47;96538.38;;;25.26;59.83
40992;BME280;29633;49.168;9.848;2022-08-19T08:22:17;96524.91;;;25.27;59.81
40992;BME280;29633;49.168;9.848;2022-08-19T08:25:18;96531.84;;;25.28;59.73
40992;BME280;29633;49.168;9.848;2022-08-19T08:27:45;96535.88;;;25.31;59.63
40992;BME280;29633;49.168;9.848;2022-08-19T08:30:16;96536.47;;;25.33;59.56
40992;BME280;29633;49.168;9.848;2022-08-19T08:32:42;96527.28;;;25.35;59.67
40992;BME280;29633;49.168;9.848;2022-08-19T08:35:13;96520.25;;;25.41;59.67
40992;BME280;29633;49.168;9.848;2022-08-19T08:37:39;96525.94;;;25.44;59.45
40992;BME280;29633;49.168;9.848;2022-08-19T08:40:44;96520.63;;;25.44;59.36
40992;BME280;29633;49.168;9.848;2022-08-19T08:43:29;96519.59;;;25.45;59.77
40992;BME280;29633;49.168;9.848;2022-08-19T08:46:05;96518.22;;;25.43;59.71
40992;BME280;29633;49.168;9.848;2022-08-19T08:51:37;96517.75;;;25.46;59.58
40992;BME280;29633;49.168;9.848;2022-08-19T08:54:12;96521.38;;;25.52;59.76
40992;BME280;29633;49.168;9.848;2022-08-19T08:56:41;96526.59;;;25.58;59.41
40992;BME280;29633;49.168;9.848;2022-08-19T09:01:42;96520.28;;;25.59;59.77
40992;BME280;29633;49.168;9.848;2022-08-19T09:04:09;96516.94;;;25.64;59.62
40992;BME280;29633;49.168;9.848;2022-08-19T09:09:34;96523.66;;;25.66;59.61
40992;BME280;29633;49.168;9.848;2022-08-19T09:12:16;96524.16;;;25.75;59.62
40992;BME280;29633;49.168;9.848;2022-08-19T09:14:48;96528.13;;;25.84;59.77
40992;BME280;29633;49.168;9.848;2022-08-19T09:17:17;96528.25;;;25.89;59.56
40992;BME280;29633;49.168;9.848;2022-08-19T09:22:20;96531.03;;;25.94;59.34
40992;BME280;29633;49.168;9.848;2022-08-19T09:24:49;96530.97;;;26.01;59.51
40992;BME280;29633;49.168;9.848;2022-08-19T09:27:18;96538.13;;;26.00;59.50
40992;BME280;29633;49.168;9.848;2022-08-19T09:29:46;96537.53;;;25.98;59.64
40992;BME280;29633;49.168;9.848;2022-08-19T09:32:14;96529.34;;;26.00;59.48
40992;BME280;29633;49.168;9.848;2022-08-19T09:34:40;96530.97;;;26.01;59.58
40992;BME280;29633;49.168;9.848;2022-08-19T09:37:07;96530.38;;;25.99;59.50
40992;BME280;29633;49.168;9.848;2022-08-19T09:39:33;96534.19;;;26.03;59.32
40992;BME280;29633;49.168;9.848;2022-08-19T09:41:59;96535.13;;;26.08;59.37
40992;BME280;29633;49.168;9.848;2022-08-19T09:44:24;96537.78;;;26.08;59.41
40992;BME280;29633;49.168;9.848;2022-08-19T09:46:50;96541.50;;;26.07;59.36
40992;BME280;29633;49.168;9.848;2022-08-19T09:49:18;96549.47;;;26.07;59.33
40992;BME280;29633;49.168;9.848;2022-08-19T09:51:45;96536.19;;;26.07;59.54
40992;BME280;29633;49.168;9.848;2022-08-19T09:54:14;96544.72;;;26.09;59.26
40992;BME280;29633;49.168;9.848;2022-08-19T09:56:40;96541.25;;;26.09;59.25
40992;BME280;29633;49.168;9.848;2022-08-19T09:59:06;96542.53;;;26.06;59.69
40992;BME280;29633;49.168;9.848;2022-08-19T10:01:32;96537.56;;;26.10;59.63
40992;BME280;29633;49.168;9.848;2022-08-19T10:03:59;96541.63;;;26.12;59.53
40992;BME280;29633;49.168;9.848;2022-08-19T10:06:29;96543.09;;;26.08;60.16
40992;BME280;29633;49.168;9.848;2022-08-19T10:08:59;96540.22;;;26.10;60.18
40992;BME280;29633;49.168;9.848;2022-08-19T10:11:25;96539.19;;;26.11;60.12
40992;BME280;29633;49.168;9.848;2022-08-19T10:13:52;96534.69;;;26.11;60.51
40992;BME280;29633;49.168;9.848;2022-08-19T10:16:20;96535.72;;;26.10;61.00
40992;BME280;29633;49.168;9.848;2022-08-19T10:18:49;96540.00;;;26.11;60.90
40992;BME280;29633;49.168;9.848;2022-08-19T10:21:25;96529.81;;;26.08;61.26
40992;BME280;29633;49.168;9.848;2022-08-19T10:23:55;96537.44;;;26.05;61.44
40992;BME280;29633;49.168;9.848;2022-08-19T10:26:32;96527.50;;;26.00;61.59
40992;BME280;29633;49.168;9.848;2022-08-19T10:28:58;96535.22;;;26.02;61.78
40992;BME280;29633;49.168;9.848;2022-08-19T10:31:28;96538.13;;;26.00;61.89
40992;BME280;29633;49.168;9.848;2022-08-19T10:33:55;96543.56;;;26.05;61.91
40992;BME280;29633;49.168;9.848;2022-08-19T10:36:28;96535.38;;;26.07;61.99
40992;BME280;29633;49.168;9.848;2022-08-19T10:38:58;96541.03;;;26.10;61.92
40992;BME280;29633;49.168;9.848;2022-08-19T10:41:30;96536.53;;;26.11;62.12
40992;BME280;29633;49.168;9.848;2022-08-19T10:44:07;96529.81;;;26.08;62.22
40992;BME280;29633;49.168;9.848;2022-08-19T10:46:37;96531.59;;;26.14;62.04
40992;BME280;29633;49.168;9.848;2022-08-19T10:49:05;96532.78;;;26.18;62.02
40992;BME280;29633;49.168;9.848;2022-08-19T10:51:31;96533.16;;;26.22;62.07
40992;BME280;29633;49.168;9.848;2022-08-19T10:54:17;96529.69;;;26.21;62.41
40992;BME280;29633;49.168;9.848;2022-08-19T10:56:43;96527.47;;;26.18;62.58
40992;BME280;29633;49.168;9.848;2022-08-19T10:59:25;96533.44;;;26.14;62.72
40992;BME280;29633;49.168;9.848;2022-08-19T11:01:54;96527.91;;;26.15;62.61
40992;BME280;29633;49.168;9.848;2022-08-19T11:04:24;96526.72;;;26.11;62.47
40992;BME280;29633;49.168;9.848;2022-08-19T11:06:49;96530.19;;;26.12;62.49
40992;BME280;29633;49.168;9.848;2022-08-19T11:09:19;96529.50;;;26.16;62.30
40992;BME280;29633;49.168;9.848;2022-08-19T11:11:45;96526.03;;;26.16;62.35
40992;BME280;29633;49.168;9.848;2022-08-19T11:14:16;96527.75;;;26.10;62.54
40992;BME280;29633;49.168;9.848;2022-08-19T11:16:44;96538.50;;;26.04;62.48
40992;BME280;29633;49.168;9.848;2022-08-19T11:19:11;96535.00;;;26.03;62.25
40992;BME280;29633;49.168;9.848;2022-08-19T11:21:44;96531.53;;;26.03;62.37
40992;BME280;29633;49.168;9.848;2022-08-19T11:24:23;96529.69;;;26.03;62.30
40992;BME280;29633;49.168;9.848;2022-08-19T11:26:52;96531.75;;;26.01;62.43
40992;BME280;29633;49.168;9.848;2022-08-19T11:29:22;96531.75;;;26.01;62.45
40992;BME280;29633;49.168;9.848;2022-08-19T11:31:51;96527.50;;;26.00;62.43
40992;BME280;29633;49.168;9.848;2022-08-19T11:34:21;96529.34;;;26.00;62.86
40992;BME280;29633;49.168;9.848;2022-08-19T11:36:49;96533.47;;;25.95;62.83
40992;BME280;29633;49.168;9.848;2022-08-19T11:39:20;96532.66;;;25.95;62.87
40992;BME280;29633;49.168;9.848;2022-08-19T11:41:47;96536.94;;;25.96;62.82
40992;BME280;29633;49.168;9.848;2022-08-19T11:44:13;96543.66;;;25.99;62.94
40992;BME280;29633;49.168;9.848;2022-08-19T11:46:41;96541.81;;;25.99;62.97
40992;BME280;29633;49.168;9.848;2022-08-19T11:49:14;96539.00;;;25.94;63.32
40992;BME280;29633;49.168;9.848;2022-08-19T11:51:41;96544.19;;;25.89;63.18
40992;BME280;29633;49.168;9.848;2022-08-19T11:54:09;96540.94;;;25.87;63.34
40992;BME280;29633;49.168;9.848;2022-08-19T11:56:37;96535.88;;;25.85;63.43
40992;BME280;29633;49.168;9.848;2022-08-19T11:59:04;96536.91;;;25.84;63.36
40992;BME280;29633;49.168;9.848;2022-08-19T12:01:30;96546.13;;;25.82;63.42
40992;BME280;29633;49.168;9.848;2022-08-19T12:03:57;96537.34;;;25.81;63.57
40992;BME280;29633;49.168;9.848;2022-08-19T12:06:28;96536.19;;;25.77;63.66
40992;BME280;29633;49.168;9.848;2022-08-19T12:08:56;96533.53;;;25.77;63.95
40992;BME280;29633;49.168;9.848;2022-08-19T12:11:23;96539.03;;;25.76;64.18
40992;BME280;29633;49.168;9.848;2022-08-19T12:13:49;96542.16;;;25.73;64.34
40992;BME280;29633;49.168;9.848;2022-08-19T12:16:20;96544.44;;;25.69;64.38
40992;BME280;29633;49.168;9.848;2022-08-19T12:18:46;96545.72;;;25.67;64.38
40992;BME280;29633;49.168;9.848;2022-08-19T12:21:19;96552.28;;;25.64;64.52
40992;BME280;29633;49.168;9.848;2022-08-19T12:23:48;96551.09;;;25.60;64.90
40992;BME280;29633;49.168;9.848;2022-08-19T12:26:16;96548.66;;;25.59;64.81
40992;BME280;29633;49.168;9.848;2022-08-19T12:28:42;96557.06;;;25.56;64.56
40992;BME280;29633;49.168;9.848;2022-08-19T12:31:09;96558.91;;;25.55;64.90
40992;BME280;29633;49.168;9.848;2022-08-19T12:33:38;96561.81;;;25.54;64.71
40992;BME280;29633;49.168;9.848;2022-08-19T12:36:07;96563.41;;;25.55;64.98
40992;BME280;29633;49.168;9.848;2022-08-19T12:38:34;96561.63;;;25.48;64.99
40992;BME280;29633;49.168;9.848;2022-08-19T12:41:00;96556.50;;;25.47;65.06
40992;BME280;29633;49.168;9.848;2022-08-19T12:43:26;96558.22;;;25.41;65.31
40992;BME280;29633;49.168;9.848;2022-08-19T12:45:52;96561.16;;;25.33;65.38
40992;BME280;29633;49.168;9.848;2022-08-19T12:48:18;96563.31;;;25.25;65.70
40992;BME280;29633;49.168;9.848;2022-08-19T12:50:45;96560.06;;;25.23;65.66
40992;BME280;29633;49.168;9.848;2022-08-19T12:53:11;96561.69;;;25.24;65.87
40992;BME280;29633;49.168;9.848;2022-08-19T12:55:37;96552.53;;;25.20;65.96
40992;BME280;29633;49.168;9.848;2022-08-19T12:58:03;96554.38;;;25.19;65.93
40992;BME280;29633;49.168;9.848;2022-08-19T13:00:29;96554.75;;;25.23;66.12
40992;BME280;29633;49.168;9.848;2022-08-19T13:02:58;96558.00;;;25.25;66.14
40992;BME280;29633;49.168;9.848;2022-08-19T13:05:28;96557.78;;;25.26;65.99
40992;BME280;29633;49.168;9.848;2022-08-19T13:07:57;96556.31;;;25.30;66.01
40992;BME280;29633;49.168;9.848;2022-08-19T13:10:32;96552.47;;;25.26;65.92
40992;BME280;29633;49.168;9.848;2022-08-19T13:13:03;96546.94;;;25.28;65.61
40992;BME280;29633;49.168;9.848;2022-08-19T13:15:37;96545.69;;;25.30;65.64
40992;BME280;29633;49.168;9.848;2022-08-19T13:18:05;96549.72;;;25.33;65.40
40992;BME280;29633;49.168;9.848;2022-08-19T13:20:31;96545.84;;;25.35;65.24
40992;BME280;29633;49.168;9.848;2022-08-19T13:22:57;96550.47;;;25.40;65.10
40992;BME280;29633;49.168;9.848;2022-08-19T13:25:23;96553.94;;;25.40;65.36
40992;BME280;29633;49.168;9.848;2022-08-19T13:27:49;96550.72;;;25.38;65.44